DW8052 Weather Reports


Display with metric or nautical units.
time (UTC)temp
F
wind
direction
speed
MPH
gust
MPH
rain 1hr
in
rain 24hr
in
rain mn
in
humidity
%
barometer
mb
20211208162704 61 172 10.0 17.0 0.00 0.07 0.00 87 1008.8
20211208162204 61 163 13.0 20.0 0.00 0.07 0.00 88 1008.8
20211208161704 61 166 10.0 18.0 0.00 0.07 0.00 88 1008.9
20211208161204 61 175 11.0 18.0 0.00 0.07 0.00 88 1008.9
20211208160704 61 166 10.0 17.0 0.00 0.07 0.00 87 1008.9
20211208160204 61 157 11.0 18.0 0.00 0.07 0.00 88 1008.9
20211208155725 61 146 11.0 20.0 0.00 0.07 0.00 87 1008.9
20211208155224 61 144 10.0 20.0 0.00 0.07 0.00 87 1009.1
20211208154725 61 154 12.0 20.0 0.00 0.07 0.00 87 1009.0
20211208154224 61 155 12.0 18.0 0.00 0.07 0.00 87 1009.2
20211208153724 61 157 14.0 20.0 0.00 0.07 0.00 87 1009.4
20211208153224 61 164 12.0 17.0 0.00 0.07 0.00 87 1009.7
20211208152724 61 188 11.0 16.0 0.00 0.07 0.00 87 1009.8
20211208152224 61 183 13.0 18.0 0.00 0.07 0.00 87 1009.7
20211208151724 61 181 11.0 17.0 0.00 0.07 0.00 87 1009.7
20211208151224 61 163 12.0 16.0 0.00 0.07 0.00 87 1009.7
20211208150724 61 159 10.0 16.0 0.00 0.07 0.00 86 1009.7
20211208150224 62 151 9.0 13.0 0.00 0.07 0.00 86 1010.0
20211208145723 61 135 9.0 12.0 0.00 0.07 0.00 86 1010.1
20211208145224 61 129 6.0 10.0 0.00 0.07 0.00 86 1010.4
20211208144724 61 150 6.0 9.0 0.00 0.07 0.00 86 1010.8
20211208144225 61 123 3.0 6.0 0.00 0.07 0.00 86 1011.1
20211208143725 61 153 3.0 5.0 0.00 0.07 0.00 86 1011.1
20211208143223 61 223 1.0 3.0 0.00 0.07 0.00 86 1011.3
20211208142725 61 223 1.0 3.0 0.00 0.07 0.00 86 1011.6
20211208142224 61 224 1.0 3.0 0.00 0.07 0.00 86 1011.7
20211208141724 61 224 1.0 3.0 0.00 0.07 0.00 86 1011.9
20211208141224 61 224 0.0 2.0 0.00 0.07 0.00 86 1012.0
20211208140724 61 224 0.0 3.0 0.00 0.07 0.00 86 1012.2
20211208140224 61 224 3.0 5.0 0.00 0.07 0.00 86 1012.3
20211208135724 61 220 3.0 6.0 0.00 0.07 0.00 86 1012.4
20211208135223 61 214 5.0 6.0 0.00 0.07 0.00 87 1012.4
20211208134724 61 213 5.0 7.0 0.00 0.07 0.00 86 1012.3
20211208134224 61 230 1.0 2.0 0.00 0.07 0.00 87 1012.5
20211208133724 61 230 3.0 5.0 0.00 0.07 0.00 87 1012.6
20211208133224 61 226 3.0 5.0 0.00 0.07 0.00 87 1012.7
20211208132724 60 233 1.0 3.0 0.00 0.07 0.00 87 1012.6
20211208132223 60 251 1.0 3.0 0.00 0.07 0.00 86 1012.8
20211208131724 60 252 3.0 5.0 0.00 0.07 0.00 87 1012.8
20211208131224 60 247 3.0 5.0 0.00 0.07 0.00 86 1013.0
20211208130724 60 243 5.0 7.0 0.00 0.07 0.00 86 1013.1
20211208130224 60 242 5.0 6.0 0.00 0.07 0.00 86 1013.1
20211208125723 60 262 3.0 6.0 0.00 0.07 0.07 86 1013.1
20211208125224 60 260 5.0 6.0 0.00 0.07 0.07 86 1013.3
20211208124724 60 252 6.0 9.0 0.00 0.07 0.07 86 1013.3
20211208124224 60 246 5.0 7.0 0.00 0.07 0.07 86 1013.2
20211208123724 60 228 6.0 8.0 0.00 0.07 0.07 86 1013.5
20211208123224 60 238 5.0 7.0 0.00 0.07 0.07 86 1013.7
20211208122724 60 247 3.0 6.0 0.00 0.07 0.07 86 1013.7
20211208122225 60 247 7.0 8.0 0.00 0.07 0.07 86 1014.0
20211208121724 60 239 5.0 7.0 0.00 0.07 0.07 86 1014.0
20211208121224 60 238 5.0 8.0 0.00 0.07 0.07 86 1013.9
20211208120723 60 252 6.0 8.0 0.00 0.07 0.07 86 1014.0
20211208120224 60 240 6.0 9.0 0.00 0.07 0.07 86 1014.2
20211208115723 60 235 5.0 8.0 0.00 0.07 0.07 86 1014.1
20211208115223 60 239 7.0 10.0 0.00 0.07 0.07 86 1014.0
20211208114723 60 241 7.0 9.0 0.00 0.07 0.07 86 1014.1
20211208114224 60 222 6.0 9.0 0.00 0.07 0.07 86 1014.1
20211208113724 60 207 6.0 10.0 0.00 0.07 0.07 86 1013.9
20211208113224 60 210 7.0 10.0 0.00 0.07 0.07 87 1013.8
20211208112723 60 198 6.0 12.0 0.00 0.07 0.07 87 1013.8
20211208112223 60 202 5.0 9.0 0.00 0.07 0.07 86 1013.7
20211208111724 60 202 5.0 9.0 0.00 0.07 0.07 87 1013.6
20211208111224 60 189 5.0 10.0 0.00 0.07 0.07 87 1013.6
20211208110724 60 202 6.0 10.0 0.00 0.07 0.07 87 1013.5
20211208110223 60 200 6.0 10.0 0.00 0.07 0.07 87 1013.6
20211208105724 60 176 6.0 12.0 0.00 0.07 0.07 87 1013.6
20211208105223 60 177 8.0 16.0 0.00 0.07 0.07 87 1013.5
20211208104723 60 168 9.0 13.0 0.00 0.07 0.07 87 1013.3
20211208104223 61 181 7.0 13.0 0.00 0.07 0.07 87 1013.3
20211208103723 61 175 7.0 13.0 0.00 0.07 0.07 87 1013.3
20211208103223 61 173 7.0 12.0 0.00 0.07 0.07 87 1013.2
20211208102723 61 167 9.0 13.0 0.00 0.07 0.07 88 1013.2
20211208102224 61 169 10.0 15.0 0.00 0.07 0.07 88 1013.1
20211208101723 61 163 8.0 13.0 0.00 0.07 0.07 88 1012.9
20211208101223 61 179 7.0 14.0 0.00 0.07 0.07 88 1013.1
20211208100724 61 167 7.0 13.0 0.00 0.07 0.07 89 1012.9
20211208100223 61 177 6.0 12.0 0.00 0.07 0.07 88 1013.0
20211208095724 61 184 6.0 13.0 0.00 0.07 0.07 89 1012.8
20211208095223 61 194 7.0 17.0 0.00 0.07 0.07 89 1012.8
20211208094724 61 167 10.0 17.0 0.00 0.07 0.07 89 1012.5
20211208094222 60 187 12.0 18.0 0.00 0.07 0.07 89 1012.5
20211208093723 60 153 16.0 23.0 0.00 0.07 0.07 88 1012.0
20211208093222 61 159 12.0 20.0 0.00 0.07 0.07 89 1012.0
20211208092723 60 200 10.0 15.0 0.00 0.07 0.07 89 1012.7
20211208092223 60 180 12.0 20.0 0.00 0.07 0.07 89 1012.3
20211208091724 60 178 12.0 23.0 0.00 0.07 0.07 89 1012.0
20211208091223 60 166 13.0 20.0 0.00 0.07 0.07 89 1011.8
20211208090724 60 160 18.0 24.0 0.00 0.07 0.07 89 1011.8
20211208090223 60 146 15.0 22.0 0.01 0.07 0.07 89 1011.0
20211208085724 60 119 13.0 21.0 0.01 0.07 0.07 89 1011.0
20211208085224 60 152 11.0 18.0 0.01 0.07 0.07 89 1011.9
20211208084724 60 151 7.0 18.0 0.01 0.07 0.07 89 1012.0
20211208084223 60 162 12.0 18.0 0.01 0.07 0.07 89 1012.3
20211208083723 61 170 14.0 22.0 0.01 0.07 0.07 89 1012.7
20211208083223 61 175 12.0 20.0 0.01 0.07 0.07 89 1012.9
20211208082723 61 166 9.0 15.0 0.01 0.07 0.07 89 1012.8
20211208082223 61 161 11.0 17.0 0.01 0.07 0.07 89 1012.7
20211208081723 61 164 10.0 17.0 0.01 0.07 0.07 89 1012.8
20211208081223 61 190 10.0 18.0 0.01 0.07 0.07 89 1013.2
20211208080723 61 158 12.0 20.0 0.02 0.07 0.07 89 1012.9
20211208080223 61 133 12.0 20.0 0.03 0.06 0.06 89 1012.4
20211208075724 61 141 10.0 15.0 0.03 0.06 0.06 89 1012.8
20211208075224 61 152 11.0 17.0 0.04 0.06 0.06 89 1013.1
20211208074724 61 167 9.0 20.0 0.05 0.06 0.06 89 1013.3
20211208074223 61 170 11.0 20.0 0.05 0.06 0.06 89 1013.3
20211208073722 61 164 12.0 20.0 0.05 0.06 0.06 89 1013.1
20211208073223 61 166 11.0 20.0 0.05 0.06 0.06 89 1013.2
20211208072723 61 153 12.0 16.0 0.05 0.06 0.06 89 1013.2
20211208072223 61 145 9.0 16.0 0.05 0.06 0.06 88 1012.9
20211208071724 61 143 12.0 15.0 0.05 0.06 0.06 88 1012.9
20211208071223 61 144 9.0 16.0 0.05 0.06 0.06 88 1013.0
20211208070723 61 146 10.0 16.0 0.04 0.05 0.05 88 1012.7
20211208070223 61 117 12.0 18.0 0.02 0.03 0.03 87 1012.5
20211208065723 60 127 9.0 15.0 0.03 0.03 0.03 87 1012.4
20211208065223 60 144 10.0 17.0 0.02 0.02 0.02 87 1012.4
20211208064723 60 133 9.0 17.0 0.01 0.01 0.01 87 1012.6
20211208064223 60 131 10.0 14.0 0.01 0.01 0.01 87 1012.3
20211208063723 60 142 10.0 16.0 0.01 0.01 0.01 86 1012.5
20211208063223 60 166 10.0 15.0 0.01 0.01 0.01 86 1012.6
20211208062723 61 156 10.0 15.0 0.01 0.01 0.01 86 1012.6
20211208062223 61 167 10.0 21.0 0.01 0.01 0.01 85 1013.1
20211208061724 61 180 12.0 24.0 0.01 0.01 0.01 85 1013.3
20211208061222 61 191 12.0 26.0 0.01 0.01 0.01 84 1013.2
20211208060723 61 190 15.0 23.0 0.01 0.01 0.01 84 1013.3
20211208060223 61 185 12.0 22.0 0.01 0.01 0.01 84 1013.2
20211208055723 61 191 12.0 22.0 0.00 0.00 0.00 84 1013.2
20211208055223 61 177 13.0 25.0 0.00 0.00 0.00 84 1012.9
20211208054724 62 181 15.0 26.0 0.00 0.00 0.00 83 1013.0
20211208054224 62 177 16.0 25.0 0.00 0.00 0.00 83 1013.0
20211208053722 62 173 16.0 25.0 0.00 0.02 0.00 82 1013.0
20211208053223 62 181 14.0 22.0 0.00 0.06 0.00 81 1013.0
20211208052724 62 165 15.0 25.0 0.00 0.19 0.00 81 1012.9
20211208052223 62 175 16.0 25.0 0.00 0.20 0.00 81 1012.8
20211208051723 62 168 14.0 25.0 0.00 0.20 0.00 81 1012.7
20211208051224 62 165 14.0 28.0 0.00 0.20 0.00 81 1012.6
20211208050724 62 166 12.0 25.0 0.00 0.20 0.00 81 1012.7
20211208050223 63 162 11.0 22.0 0.00 0.20 0.00 81 1013.0
20211208045723 63 175 18.0 30.0 0.00 0.20 0.00 81 1012.9
20211208045223 63 167 19.0 26.0 0.00 0.20 0.00 80 1012.7
20211208044723 63 162 16.0 32.0 0.00 0.20 0.00 80 1012.5
20211208044222 63 161 19.0 26.0 0.00 0.20 0.00 80 1012.5
20211208043724 63 158 12.0 26.0 0.00 0.20 0.00 80 1012.7
20211208043223 63 167 13.0 25.0 0.00 0.20 0.00 80 1012.8
20211208042723 63 162 14.0 21.0 0.00 0.20 0.00 80 1013.0
20211208042223 63 167 21.0 28.0 0.00 0.20 0.00 80 1013.0
20211208041723 63 165 13.0 25.0 0.00 0.20 0.00 80 1012.8
20211208041222 63 165 13.0 26.0 0.00 0.20 0.00 80 1012.9
20211208040723 63 157 13.0 25.0 0.00 0.20 0.00 80 1012.8
20211208040223 63 160 18.0 25.0 0.00 0.20 0.00 80 1012.6
20211208035722 63 170 11.0 24.0 0.00 0.20 0.00 80 1012.7
20211208035223 63 153 16.0 26.0 0.00 0.20 0.00 79 1012.5
20211208034723 63 159 18.0 25.0 0.00 0.20 0.00 79 1012.5
20211208034223 63 160 20.0 26.0 0.00 0.20 0.00 78 1012.6
20211208033723 64 163 14.0 23.0 0.00 0.20 0.00 78 1012.6
20211208033223 64 159 20.0 29.0 0.00 0.20 0.00 78 1012.6
20211208032723 64 158 7.0 21.0 0.00 0.20 0.00 78 1012.6
20211208032223 64 161 12.0 22.0 0.00 0.20 0.00 77 1012.4
20211208031723 64 155 14.0 25.0 0.00 0.20 0.00 77 1012.4
20211208031223 65 149 10.0 22.0 0.00 0.20 0.00 76 1012.4
20211208030723 65 171 7.0 17.0 0.00 0.20 0.00 77 1012.2
20211208030223 65 151 18.0 24.0 0.00 0.20 0.00 77 1012.2
20211208025723 64 157 9.0 21.0 0.00 0.20 0.00 78 1012.3
20211208025222 64 151 15.0 26.0 0.00 0.20 0.00 78 1012.2
20211208024722 64 166 11.0 25.0 0.00 0.20 0.00 78 1012.4
20211208024223 64 158 18.0 23.0 0.00 0.20 0.00 77 1012.4
20211208023723 64 157 19.0 29.0 0.00 0.20 0.00 77 1012.6
20211208023222 64 153 18.0 29.0 0.00 0.20 0.00 77 1012.6
20211208022722 64 153 18.0 24.0 0.00 0.20 0.00 77 1012.7
20211208022223 64 165 14.0 25.0 0.00 0.20 0.00 77 1012.8
20211208021723 64 154 14.0 24.0 0.00 0.20 0.00 78 1013.0
20211208021223 64 136 9.0 18.0 0.00 0.20 0.00 78 1013.2
20211208020724 64 171 13.0 25.0 0.00 0.20 0.00 78 1013.3
20211208020223 64 157 12.0 21.0 0.00 0.20 0.00 78 1013.4
20211208015723 64 163 18.0 26.0 0.00 0.20 0.00 78 1013.4
20211208015222 64 162 18.0 26.0 0.00 0.20 0.00 78 1013.6
20211208014723 64 159 15.0 25.0 0.00 0.20 0.00 78 1013.4
20211208014223 64 159 13.0 24.0 0.00 0.20 0.00 77 1013.4
20211208013722 64 154 16.0 24.0 0.00 0.20 0.00 77 1013.6
20211208013223 64 168 14.0 24.0 0.00 0.20 0.00 77 1013.7
20211208012722 64 157 20.0 26.0 0.00 0.20 0.00 76 1013.6
20211208012222 64 164 18.0 29.0 0.00 0.20 0.00 75 1013.7
20211208011722 65 165 20.0 28.0 0.00 0.20 0.00 75 1013.6
20211208011223 65 159 14.0 26.0 0.00 0.20 0.00 75 1013.5
20211208010723 65 168 20.0 30.0 0.00 0.20 0.00 75 1013.5
20211208010223 65 154 14.0 24.0 0.00 0.20 0.00 74 1013.6
20211208005723 65 167 17.0 26.0 0.00 0.20 0.00 74 1013.6
20211208005223 66 161 16.0 24.0 0.00 0.20 0.00 74 1013.5
20211208004722 66 159 21.0 26.0 0.00 0.20 0.00 73 1013.6
20211208004223 66 148 11.0 24.0 0.00 0.20 0.00 74 1013.6
20211208003723 66 175 19.0 26.0 0.00 0.20 0.00 75 1013.5
20211208003222 66 172 13.0 24.0 0.00 0.20 0.00 75 1013.5
20211208002722 65 147 20.0 28.0 0.00 0.20 0.00 76 1013.5
20211208002223 65 160 20.0 26.0 0.00 0.20 0.00 76 1013.6
20211208001722 65 159 18.0 29.0 0.00 0.20 0.00 76 1013.5
20211208001222 65 150 17.0 26.0 0.00 0.20 0.00 78 1013.4
20211208000723 64 162 17.0 29.0 0.00 0.20 0.00 78 1013.4
20211208000222 64 164 20.0 29.0 0.00 0.20 0.00 78 1013.4
20211207235722 64 152 20.0 26.0 0.00 0.20 0.00 78 1013.5
20211207235223 64 164 21.0 30.0 0.00 0.20 0.00 78 1013.5
20211207234723 64 157 21.0 30.0 0.00 0.20 0.00 78 1013.4
20211207234222 64 152 18.0 28.0 0.00 0.20 0.00 79 1013.4
20211207233722 64 162 15.0 26.0 0.00 0.20 0.00 79 1013.4
20211207233222 64 164 12.0 28.0 0.00 0.20 0.00 79 1013.4
20211207232723 64 158 23.0 30.0 0.00 0.20 0.00 79 1013.3
20211207232222 63 165 14.0 28.0 0.00 0.20 0.00 81 1013.6
20211207231722 63 156 20.0 26.0 0.00 0.20 0.00 81 1013.5
20211207231223 63 160 17.0 28.0 0.00 0.20 0.00 81 1013.5
20211207230723 63 159 21.0 32.0 0.00 0.20 0.00 81 1013.4
20211207230222 63 162 16.0 26.0 0.00 0.20 0.00 82 1013.5
20211207225722 62 160 18.0 26.0 0.00 0.20 0.00 82 1013.5
20211207225223 62 165 20.0 30.0 0.00 0.20 0.00 82 1013.6
20211207224722 62 161 20.0 30.0 0.00 0.20 0.00 82 1013.5
20211207224222 62 161 14.0 23.0 0.00 0.20 0.00 83 1013.6
20211207223722 62 154 17.0 26.0 0.00 0.20 0.00 83 1013.8
20211207223222 62 161 22.0 32.0 0.00 0.20 0.00 83 1013.7
20211207222722 61 160 20.0 29.0 0.00 0.20 0.00 83 1013.7
20211207222222 61 164 23.0 33.0 0.00 0.20 0.00 83 1013.8
20211207221722 61 157 19.0 26.0 0.00 0.20 0.00 83 1013.8
20211207221223 61 164 19.0 29.0 0.00 0.20 0.00 83 1014.0
20211207220722 61 166 19.0 26.0 0.00 0.20 0.00 83 1013.9
20211207220222 61 161 17.0 28.0 0.00 0.20 0.00 83 1014.0
20211207215723 61 164 19.0 31.0 0.00 0.20 0.00 83 1013.9
20211207215222 61 157 20.0 29.0 0.00 0.20 0.00 83 1013.9
20211207214722 61 163 15.0 22.0 0.00 0.20 0.00 83 1013.9
20211207214222 61 162 20.0 29.0 0.00 0.20 0.00 83 1013.9
20211207213722 61 157 17.0 29.0 0.00 0.20 0.00 83 1014.1
20211207213222 61 168 18.0 32.0 0.00 0.20 0.00 83 1013.7
20211207212722 61 161 21.0 33.0 0.00 0.20 0.00 83 1013.6
20211207212222 61 165 17.0 29.0 0.00 0.20 0.00 84 1013.8
20211207211723 61 158 18.0 28.0 0.00 0.20 0.00 83 1013.7
20211207211223 61 163 20.0 28.0 0.00 0.20 0.00 83 1013.5
20211207210722 61 156 18.0 25.0 0.00 0.20 0.00 83 1013.4
20211207210222 62 164 17.0 26.0 0.00 0.20 0.00 83 1013.5
20211207205722 62 155 14.0 26.0 0.00 0.20 0.00 83 1013.5
20211207205221 62 164 18.0 31.0 0.00 0.20 0.00 83 1013.5
20211207204723 62 161 21.0 29.0 0.00 0.20 0.00 84 1013.5
20211207204222 62 159 18.0 29.0 0.00 0.20 0.00 84 1013.3
20211207203722 62 158 17.0 26.0 0.00 0.20 0.00 84 1013.2
20211207203222 61 167 17.0 32.0 0.00 0.20 0.00 85 1013.3
20211207202721 61 163 14.0 29.0 0.00 0.20 0.00 85 1013.1
20211207202222 61 155 20.0 29.0 0.00 0.20 0.00 85 1013.1
20211207201722 61 158 19.0 33.0 0.00 0.20 0.00 86 1013.1
20211207201221 61 156 24.0 32.0 0.00 0.20 0.00 86 1012.7
20211207200722 61 159 18.0 29.0 0.00 0.20 0.00 86 1012.6
20211207200222 61 163 17.0 32.0 0.00 0.20 0.00 86 1012.6
20211207195722 61 161 18.0 26.0 0.00 0.20 0.00 86 1012.5
20211207195222 61 168 18.0 26.0 0.00 0.20 0.00 86 1012.5
20211207194723 61 159 20.0 31.0 0.00 0.20 0.00 86 1012.4
20211207194222 61 163 21.0 30.0 0.00 0.20 0.00 86 1012.2
20211207193722 61 160 22.0 35.0 0.00 0.20 0.00 86 1012.2
20211207193222 61 161 25.0 35.0 0.00 0.20 0.00 86 1012.0
20211207192721 61 158 22.0 32.0 0.00 0.20 0.00 86 1011.8
20211207192222 61 157 21.0 35.0 0.00 0.20 0.00 86 1011.7
20211207191722 61 163 17.0 33.0 0.00 0.20 0.00 86 1011.6
20211207191222 61 160 22.0 37.0 0.00 0.20 0.00 86 1011.6
20211207190722 61 162 21.0 36.0 0.00 0.20 0.00 86 1011.6
20211207190221 62 160 22.0 32.0 0.00 0.20 0.00 86 1011.6
20211207185721 61 158 18.0 39.0 0.00 0.20 0.00 87 1011.4
20211207185222 61 161 24.0 35.0 0.00 0.20 0.00 87 1011.3
20211207184722 61 155 23.0 33.0 0.00 0.20 0.00 87 1011.3
20211207184221 61 157 22.0 35.0 0.00 0.20 0.00 87 1011.1
20211207183722 61 156 17.0 35.0 0.00 0.20 0.00 87 1011.0
20211207183222 61 139 15.0 33.0 0.00 0.20 0.00 87 1011.0
20211207182721 61 157 22.0 32.0 0.00 0.20 0.00 87 1010.8
20211207182221 61 157 24.0 38.0 0.00 0.20 0.00 87 1010.5
20211207181722 62 159 23.0 38.0 0.00 0.20 0.00 87 1010.5
20211207181221 62 158 20.0 38.0 0.00 0.20 0.00 87 1010.6
20211207180722 62 152 22.0 33.0 0.00 0.20 0.00 87 1010.5
20211207180221 62 156 24.0 36.0 0.00 0.20 0.00 87 1010.6
20211207175721 62 159 19.0 37.0 0.00 0.20 0.00 87 1010.6
20211207175222 62 158 21.0 35.0 0.00 0.20 0.00 87 1010.4
20211207174722 62 161 24.0 38.0 0.00 0.20 0.00 87 1010.5
20211207174222 62 157 22.0 35.0 0.00 0.20 0.00 87 1010.5
20211207173722 62 164 24.0 36.0 0.00 0.20 0.00 87 1010.4
20211207173222 62 158 25.0 36.0 0.00 0.20 0.00 87 1010.6
20211207172722 62 159 22.0 37.0 0.00 0.20 0.00 87 1010.4
20211207172222 62 160 24.0 39.0 0.00 0.20 0.00 87 1010.5
20211207171721 62 162 20.0 33.0 0.00 0.20 0.00 87 1010.4
20211207171221 62 162 21.0 37.0 0.00 0.20 0.00 87 1010.5
20211207170721 62 159 28.0 39.0 0.00 0.20 0.00 87 1010.4
20211207170222 62 158 24.0 37.0 0.00 0.20 0.00 87 1010.6
20211207165722 62 153 24.0 35.0 0.00 0.20 0.00 87 1010.5
20211207165222 63 162 22.0 36.0 0.00 0.20 0.00 87 1010.4
20211207164721 63 159 22.0 38.0 0.00 0.20 0.00 87 1010.2
20211207164221 63 161 25.0 35.0 0.00 0.20 0.00 87 1010.4
20211207163722 63 162 26.0 38.0 0.00 0.20 0.00 86 1010.3
20211207163221 63 157 27.0 38.0 0.00 0.20 0.00 87 1010.3